sensor_id;sensor_type;location;lat;lon;timestamp;P1;durP1;ratioP1;P2;durP2;ratioP2
26977;SDS011;56314;48.088;11.642;2022-09-17T00:00:06;13.65;;;6.00;;
26977;SDS011;56314;48.088;11.642;2022-09-17T00:02:33;13.07;;;6.13;;
26977;SDS011;56314;48.088;11.642;2022-09-17T00:04:58;7.45;;;5.40;;
26977;SDS011;56314;48.088;11.642;2022-09-17T00:07:24;7.53;;;5.20;;
26977;SDS011;56314;48.088;11.642;2022-09-17T00:09:49;8.70;;;5.88;;
26977;SDS011;56314;48.088;11.642;2022-09-17T00:12:14;10.30;;;5.75;;
26977;SDS011;56314;48.088;11.642;2022-09-17T00:14:40;7.78;;;5.53;;
26977;SDS011;56314;48.088;11.642;2022-09-17T00:17:05;7.22;;;5.38;;
26977;SDS011;56314;48.088;11.642;2022-09-17T00:19:30;11.60;;;5.72;;
26977;SDS011;56314;48.088;11.642;2022-09-17T00:21:56;8.55;;;5.72;;
26977;SDS011;56314;48.088;11.642;2022-09-17T00:24:21;8.48;;;5.40;;
26977;SDS011;56314;48.088;11.642;2022-09-17T00:26:47;9.00;;;5.68;;
26977;SDS011;56314;48.088;11.642;2022-09-17T00:29:13;8.00;;;5.70;;
26977;SDS011;56314;48.088;11.642;2022-09-17T00:31:38;6.90;;;5.32;;
26977;SDS011;56314;48.088;11.642;2022-09-17T00:34:04;8.43;;;5.47;;
26977;SDS011;56314;48.088;11.642;2022-09-17T00:36:31;6.97;;;4.72;;
26977;SDS011;56314;48.088;11.642;2022-09-17T00:38:59;9.50;;;5.28;;
26977;SDS011;56314;48.088;11.642;2022-09-17T00:41:26;6.45;;;5.00;;
26977;SDS011;56314;48.088;11.642;2022-09-17T00:43:57;6.32;;;5.22;;
26977;SDS011;56314;48.088;11.642;2022-09-17T00:49:03;9.88;;;4.93;;
26977;SDS011;56314;48.088;11.642;2022-09-17T00:51:36;8.65;;;4.72;;
26977;SDS011;56314;48.088;11.642;2022-09-17T00:54:09;6.88;;;4.57;;
26977;SDS011;56314;48.088;11.642;2022-09-17T00:56:36;6.30;;;4.20;;
26977;SDS011;56314;48.088;11.642;2022-09-17T00:59:04;6.72;;;4.15;;
26977;SDS011;56314;48.088;11.642;2022-09-17T01:01:30;3.90;;;3.47;;
26977;SDS011;56314;48.088;11.642;2022-09-17T01:03:56;5.25;;;3.25;;
26977;SDS011;56314;48.088;11.642;2022-09-17T01:26:17;5.22;;;2.50;;
26977;SDS011;56314;48.088;11.642;2022-09-17T01:40:01;2.58;;;2.15;;
26977;SDS011;56314;48.088;11.642;2022-09-17T01:42:37;4.77;;;2.60;;
26977;SDS011;56314;48.088;11.642;2022-09-17T01:45:34;7.60;;;3.05;;
26977;SDS011;56314;48.088;11.642;2022-09-17T01:48:09;4.15;;;2.60;;
26977;SDS011;56314;48.088;11.642;2022-09-17T01:50:43;3.47;;;2.30;;
26977;SDS011;56314;48.088;11.642;2022-09-17T01:53:14;8.98;;;3.13;;
26977;SDS011;56314;48.088;11.642;2022-09-17T01:55:43;3.55;;;2.70;;
26977;SDS011;56314;48.088;11.642;2022-09-17T01:58:13;4.18;;;2.40;;
26977;SDS011;56314;48.088;11.642;2022-09-17T02:00:46;5.93;;;2.70;;
26977;SDS011;56314;48.088;11.642;2022-09-17T02:03:20;7.82;;;2.90;;
26977;SDS011;56314;48.088;11.642;2022-09-17T02:05:53;4.13;;;2.80;;
26977;SDS011;56314;48.088;11.642;2022-09-17T02:08:23;2.50;;;2.30;;
26977;SDS011;56314;48.088;11.642;2022-09-17T02:11:11;5.90;;;3.00;;
26977;SDS011;56314;48.088;11.642;2022-09-17T02:13:59;2.88;;;2.58;;
26977;SDS011;56314;48.088;11.642;2022-09-17T02:16:32;5.55;;;2.80;;
26977;SDS011;56314;48.088;11.642;2022-09-17T02:19:22;4.93;;;2.90;;
26977;SDS011;56314;48.088;11.642;2022-09-17T02:21:52;4.00;;;2.40;;
26977;SDS011;56314;48.088;11.642;2022-09-17T02:27:29;3.83;;;2.30;;
26977;SDS011;56314;48.088;11.642;2022-09-17T02:30:13;2.60;;;2.40;;
26977;SDS011;56314;48.088;11.642;2022-09-17T02:32:38;4.47;;;2.20;;
26977;SDS011;56314;48.088;11.642;2022-09-17T02:35:04;3.92;;;2.58;;
26977;SDS011;56314;48.088;11.642;2022-09-17T02:37:30;4.55;;;2.53;;
26977;SDS011;56314;48.088;11.642;2022-09-17T02:39:56;2.58;;;2.38;;
26977;SDS011;56314;48.088;11.642;2022-09-17T02:47:31;4.45;;;2.42;;
26977;SDS011;56314;48.088;11.642;2022-09-17T03:01:18;2.67;;;2.10;;
26977;SDS011;56314;48.088;11.642;2022-09-17T03:03:50;3.42;;;2.05;;
26977;SDS011;56314;48.088;11.642;2022-09-17T03:06:18;3.10;;;1.90;;
26977;SDS011;56314;48.088;11.642;2022-09-17T03:08:44;2.75;;;1.58;;
26977;SDS011;56314;48.088;11.642;2022-09-17T03:11:11;2.20;;;1.33;;
26977;SDS011;56314;48.088;11.642;2022-09-17T03:13:37;2.08;;;1.65;;
26977;SDS011;56314;48.088;11.642;2022-09-17T03:16:03;1.20;;;1.10;;
26977;SDS011;56314;48.088;11.642;2022-09-17T03:18:30;2.75;;;1.58;;
26977;SDS011;56314;48.088;11.642;2022-09-17T03:20:55;3.08;;;1.67;;
26977;SDS011;56314;48.088;11.642;2022-09-17T03:23:20;3.30;;;1.50;;
26977;SDS011;56314;48.088;11.642;2022-09-17T03:25:46;1.75;;;1.42;;
26977;SDS011;56314;48.088;11.642;2022-09-17T03:28:13;2.75;;;1.40;;
26977;SDS011;56314;48.088;11.642;2022-09-17T03:30:39;2.83;;;1.45;;
26977;SDS011;56314;48.088;11.642;2022-09-17T03:33:05;4.22;;;1.30;;
26977;SDS011;56314;48.088;11.642;2022-09-17T03:35:30;6.18;;;1.65;;
26977;SDS011;56314;48.088;11.642;2022-09-17T03:37:55;3.55;;;1.60;;
26977;SDS011;56314;48.088;11.642;2022-09-17T03:40:21;6.18;;;2.03;;
26977;SDS011;56314;48.088;11.642;2022-09-17T03:42:46;2.25;;;1.20;;
26977;SDS011;56314;48.088;11.642;2022-09-17T03:45:12;4.00;;;1.23;;
26977;SDS011;56314;48.088;11.642;2022-09-17T03:47:37;4.22;;;1.67;;
26977;SDS011;56314;48.088;11.642;2022-09-17T03:50:03;1.58;;;1.48;;
26977;SDS011;56314;48.088;11.642;2022-09-17T03:52:29;3.97;;;1.55;;
26977;SDS011;56314;48.088;11.642;2022-09-17T03:54:55;5.10;;;2.00;;
26977;SDS011;56314;48.088;11.642;2022-09-17T03:57:20;4.38;;;1.80;;
26977;SDS011;56314;48.088;11.642;2022-09-17T03:59:46;3.03;;;1.85;;
26977;SDS011;56314;48.088;11.642;2022-09-17T04:02:12;5.35;;;1.58;;
26977;SDS011;56314;48.088;11.642;2022-09-17T04:04:37;1.65;;;1.40;;
26977;SDS011;56314;48.088;11.642;2022-09-17T04:07:03;6.10;;;1.58;;
26977;SDS011;56314;48.088;11.642;2022-09-17T04:09:28;1.63;;;1.50;;
26977;SDS011;56314;48.088;11.642;2022-09-17T04:11:54;3.13;;;1.85;;
26977;SDS011;56314;48.088;11.642;2022-09-17T04:14:20;1.85;;;1.50;;
26977;SDS011;56314;48.088;11.642;2022-09-17T04:16:45;3.80;;;1.73;;
26977;SDS011;56314;48.088;11.642;2022-09-17T04:19:11;4.22;;;1.83;;
26977;SDS011;56314;48.088;11.642;2022-09-17T04:21:36;3.33;;;2.10;;
26977;SDS011;56314;48.088;11.642;2022-09-17T04:24:02;3.15;;;2.03;;
26977;SDS011;56314;48.088;11.642;2022-09-17T04:26:27;4.85;;;2.47;;
26977;SDS011;56314;48.088;11.642;2022-09-17T04:28:52;3.13;;;1.90;;
26977;SDS011;56314;48.088;11.642;2022-09-17T04:31:18;9.15;;;2.50;;
26977;SDS011;56314;48.088;11.642;2022-09-17T04:33:43;4.25;;;1.98;;
26977;SDS011;56314;48.088;11.642;2022-09-17T04:36:09;2.63;;;1.67;;
26977;SDS011;56314;48.088;11.642;2022-09-17T04:38:34;2.58;;;1.90;;
26977;SDS011;56314;48.088;11.642;2022-09-17T04:40:59;2.80;;;1.70;;
26977;SDS011;56314;48.088;11.642;2022-09-17T04:43:25;4.13;;;2.00;;
26977;SDS011;56314;48.088;11.642;2022-09-17T04:45:50;5.22;;;2.30;;
26977;SDS011;56314;48.088;11.642;2022-09-17T04:48:16;2.95;;;2.10;;
26977;SDS011;56314;48.088;11.642;2022-09-17T04:50:42;4.70;;;2.47;;
26977;SDS011;56314;48.088;11.642;2022-09-17T04:53:07;3.40;;;2.47;;
26977;SDS011;56314;48.088;11.642;2022-09-17T04:55:32;5.90;;;2.60;;
26977;SDS011;56314;48.088;11.642;2022-09-17T04:57:58;2.63;;;2.08;;
26977;SDS011;56314;48.088;11.642;2022-09-17T05:00:24;3.10;;;1.98;;
26977;SDS011;56314;48.088;11.642;2022-09-17T05:02:50;2.47;;;1.83;;
26977;SDS011;56314;48.088;11.642;2022-09-17T05:05:17;4.10;;;1.83;;
26977;SDS011;56314;48.088;11.642;2022-09-17T05:07:43;3.50;;;1.95;;
26977;SDS011;56314;48.088;11.642;2022-09-17T05:10:09;4.28;;;2.00;;
26977;SDS011;56314;48.088;11.642;2022-09-17T05:12:36;7.38;;;2.10;;
26977;SDS011;56314;48.088;11.642;2022-09-17T05:15:02;4.15;;;1.88;;
26977;SDS011;56314;48.088;11.642;2022-09-17T05:17:28;6.68;;;2.05;;
26977;SDS011;56314;48.088;11.642;2022-09-17T05:19:54;3.55;;;1.90;;
26977;SDS011;56314;48.088;11.642;2022-09-17T05:22:19;3.63;;;1.88;;
26977;SDS011;56314;48.088;11.642;2022-09-17T05:24:45;6.53;;;2.33;;
26977;SDS011;56314;48.088;11.642;2022-09-17T05:27:10;2.05;;;1.80;;
26977;SDS011;56314;48.088;11.642;2022-09-17T05:29:35;5.25;;;1.98;;
26977;SDS011;56314;48.088;11.642;2022-09-17T05:32:01;2.80;;;2.20;;
26977;SDS011;56314;48.088;11.642;2022-09-17T05:34:30;3.05;;;2.00;;
26977;SDS011;56314;48.088;11.642;2022-09-17T05:36:56;4.90;;;1.85;;
26977;SDS011;56314;48.088;11.642;2022-09-17T05:39:21;3.08;;;1.70;;
26977;SDS011;56314;48.088;11.642;2022-09-17T05:41:49;6.38;;;2.70;;
26977;SDS011;56314;48.088;11.642;2022-09-17T05:44:18;6.15;;;1.80;;
26977;SDS011;56314;48.088;11.642;2022-09-17T05:46:44;5.30;;;2.33;;
26977;SDS011;56314;48.088;11.642;2022-09-17T05:49:10;4.78;;;1.60;;
26977;SDS011;56314;48.088;11.642;2022-09-17T05:51:35;5.05;;;2.00;;
26977;SDS011;56314;48.088;11.642;2022-09-17T05:54:01;8.57;;;1.90;;
26977;SDS011;56314;48.088;11.642;2022-09-17T05:56:26;3.13;;;2.05;;
26977;SDS011;56314;48.088;11.642;2022-09-17T05:58:55;3.00;;;2.20;;
26977;SDS011;56314;48.088;11.642;2022-09-17T06:01:21;3.90;;;2.30;;
26977;SDS011;56314;48.088;11.642;2022-09-17T06:03:46;5.18;;;2.25;;
26977;SDS011;56314;48.088;11.642;2022-09-17T06:06:12;5.32;;;2.45;;
26977;SDS011;56314;48.088;11.642;2022-09-17T06:08:37;5.07;;;2.78;;
26977;SDS011;56314;48.088;11.642;2022-09-17T06:11:03;4.32;;;2.50;;
26977;SDS011;56314;48.088;11.642;2022-09-17T06:13:29;4.75;;;2.75;;
26977;SDS011;56314;48.088;11.642;2022-09-17T06:15:55;4.00;;;2.30;;
26977;SDS011;56314;48.088;11.642;2022-09-17T06:18:20;6.75;;;2.65;;
26977;SDS011;56314;48.088;11.642;2022-09-17T06:20:52;8.18;;;2.60;;
26977;SDS011;56314;48.088;11.642;2022-09-17T06:23:22;4.00;;;1.95;;
26977;SDS011;56314;48.088;11.642;2022-09-17T06:25:54;6.00;;;2.20;;
26977;SDS011;56314;48.088;11.642;2022-09-17T06:28:21;6.28;;;2.08;;
26977;SDS011;56314;48.088;11.642;2022-09-17T06:30:46;5.03;;;2.17;;
26977;SDS011;56314;48.088;11.642;2022-09-17T06:33:12;5.80;;;2.45;;
26977;SDS011;56314;48.088;11.642;2022-09-17T06:35:38;4.05;;;2.28;;
26977;SDS011;56314;48.088;11.642;2022-09-17T06:38:03;3.45;;;1.80;;
26977;SDS011;56314;48.088;11.642;2022-09-17T06:40:29;5.05;;;2.03;;
26977;SDS011;56314;48.088;11.642;2022-09-17T06:42:58;3.35;;;1.85;;
26977;SDS011;56314;48.088;11.642;2022-09-17T06:45:24;2.83;;;1.70;;
26977;SDS011;56314;48.088;11.642;2022-09-17T06:47:50;7.57;;;2.55;;
26977;SDS011;56314;48.088;11.642;2022-09-17T06:50:16;7.90;;;1.90;;
26977;SDS011;56314;48.088;11.642;2022-09-17T06:52:48;2.70;;;1.90;;
26977;SDS011;56314;48.088;11.642;2022-09-17T06:55:14;7.03;;;2.05;;
26977;SDS011;56314;48.088;11.642;2022-09-17T06:57:40;3.78;;;1.63;;
26977;SDS011;56314;48.088;11.642;2022-09-17T07:00:05;4.45;;;1.38;;
26977;SDS011;56314;48.088;11.642;2022-09-17T07:02:31;3.05;;;1.80;;
26977;SDS011;56314;48.088;11.642;2022-09-17T07:04:57;5.25;;;1.80;;
26977;SDS011;56314;48.088;11.642;2022-09-17T07:07:22;4.70;;;2.08;;
26977;SDS011;56314;48.088;11.642;2022-09-17T07:09:47;6.18;;;1.60;;
26977;SDS011;56314;48.088;11.642;2022-09-17T07:12:13;4.13;;;1.50;;
26977;SDS011;56314;48.088;11.642;2022-09-17T07:14:38;4.60;;;1.63;;
26977;SDS011;56314;48.088;11.642;2022-09-17T07:17:04;3.47;;;1.80;;
26977;SDS011;56314;48.088;11.642;2022-09-17T07:19:29;4.68;;;1.77;;
26977;SDS011;56314;48.088;11.642;2022-09-17T07:21:54;5.30;;;2.17;;
26977;SDS011;56314;48.088;11.642;2022-09-17T07:24:19;4.85;;;1.58;;
26977;SDS011;56314;48.088;11.642;2022-09-17T07:26:45;3.38;;;1.45;;
26977;SDS011;56314;48.088;11.642;2022-09-17T07:29:10;6.22;;;1.63;;
26977;SDS011;56314;48.088;11.642;2022-09-17T07:31:36;8.98;;;2.00;;
26977;SDS011;56314;48.088;11.642;2022-09-17T07:34:01;9.48;;;2.63;;
26977;SDS011;56314;48.088;11.642;2022-09-17T07:36:27;3.03;;;1.70;;
26977;SDS011;56314;48.088;11.642;2022-09-17T07:38:52;4.28;;;1.52;;
26977;SDS011;56314;48.088;11.642;2022-09-17T07:41:18;6.45;;;1.92;;
26977;SDS011;56314;48.088;11.642;2022-09-17T07:43:43;4.80;;;1.45;;
26977;SDS011;56314;48.088;11.642;2022-09-17T07:46:13;5.32;;;1.35;;
26977;SDS011;56314;48.088;11.642;2022-09-17T07:48:40;9.27;;;1.80;;
26977;SDS011;56314;48.088;11.642;2022-09-17T07:51:05;5.88;;;1.70;;
26977;SDS011;56314;48.088;11.642;2022-09-17T07:53:31;8.75;;;1.70;;
26977;SDS011;56314;48.088;11.642;2022-09-17T07:56:00;8.88;;;1.48;;
26977;SDS011;56314;48.088;11.642;2022-09-17T07:58:29;8.88;;;2.03;;
26977;SDS011;56314;48.088;11.642;2022-09-17T08:01:00;3.50;;;1.33;;
26977;SDS011;56314;48.088;11.642;2022-09-17T08:03:31;3.58;;;1.67;;
26977;SDS011;56314;48.088;11.642;2022-09-17T08:06:03;7.63;;;1.80;;
26977;SDS011;56314;48.088;11.642;2022-09-17T08:08:33;5.50;;;1.35;;
26977;SDS011;56314;48.088;11.642;2022-09-17T08:11:04;6.28;;;1.80;;
26977;SDS011;56314;48.088;11.642;2022-09-17T08:13:34;5.93;;;1.50;;
26977;SDS011;56314;48.088;11.642;2022-09-17T08:16:04;4.32;;;1.50;;
26977;SDS011;56314;48.088;11.642;2022-09-17T08:18:31;7.65;;;2.60;;
26977;SDS011;56314;48.088;11.642;2022-09-17T08:20:57;5.53;;;1.40;;
26977;SDS011;56314;48.088;11.642;2022-09-17T08:23:24;5.95;;;1.52;;
26977;SDS011;56314;48.088;11.642;2022-09-17T08:25:51;15.63;;;2.08;;
26977;SDS011;56314;48.088;11.642;2022-09-17T08:28:20;5.97;;;1.85;;
26977;SDS011;56314;48.088;11.642;2022-09-17T08:30:46;6.25;;;1.92;;
26977;SDS011;56314;48.088;11.642;2022-09-17T08:33:12;7.63;;;1.52;;
26977;SDS011;56314;48.088;11.642;2022-09-17T08:35:38;5.57;;;1.65;;
26977;SDS011;56314;48.088;11.642;2022-09-17T08:38:03;3.33;;;1.25;;
26977;SDS011;56314;48.088;11.642;2022-09-17T08:40:28;5.10;;;1.77;;
26977;SDS011;56314;48.088;11.642;2022-09-17T08:42:55;7.88;;;1.67;;
26977;SDS011;56314;48.088;11.642;2022-09-17T08:45:26;10.18;;;1.58;;
26977;SDS011;56314;48.088;11.642;2022-09-17T08:47:53;4.95;;;1.98;;
26977;SDS011;56314;48.088;11.642;2022-09-17T08:50:28;5.15;;;1.80;;
26977;SDS011;56314;48.088;11.642;2022-09-17T08:56:04;7.57;;;1.67;;
26977;SDS011;56314;48.088;11.642;2022-09-17T08:58:41;5.57;;;1.30;;
26977;SDS011;56314;48.088;11.642;2022-09-17T09:06:41;6.97;;;1.45;;
26977;SDS011;56314;48.088;11.642;2022-09-17T09:09:39;5.95;;;1.52;;
26977;SDS011;56314;48.088;11.642;2022-09-17T09:12:11;6.78;;;1.50;;
26977;SDS011;56314;48.088;11.642;2022-09-17T09:14:49;5.93;;;1.42;;
26977;SDS011;56314;48.088;11.642;2022-09-17T09:17:21;4.78;;;1.42;;
26977;SDS011;56314;48.088;11.642;2022-09-17T09:19:49;5.45;;;1.65;;
26977;SDS011;56314;48.088;11.642;2022-09-17T09:33:38;6.85;;;1.60;;
26977;SDS011;56314;48.088;11.642;2022-09-17T09:36:07;7.65;;;1.92;;
26977;SDS011;56314;48.088;11.642;2022-09-17T09:44:23;7.45;;;1.60;;
26977;SDS011;56314;48.088;11.642;2022-09-17T09:55:00;8.05;;;2.05;;
26977;SDS011;56314;48.088;11.642;2022-09-17T10:02:58;8.93;;;1.60;;
26977;SDS011;56314;48.088;11.642;2022-09-17T10:05:24;6.28;;;1.90;;
26977;SDS011;56314;48.088;11.642;2022-09-17T10:07:50;8.55;;;2.05;;
26977;SDS011;56314;48.088;11.642;2022-09-17T10:10:15;4.10;;;1.73;;
26977;SDS011;56314;48.088;11.642;2022-09-17T10:12:40;9.27;;;1.77;;
26977;SDS011;56314;48.088;11.642;2022-09-17T10:15:23;7.15;;;1.77;;
26977;SDS011;56314;48.088;11.642;2022-09-17T10:18:10;8.10;;;1.93;;
26977;SDS011;56314;48.088;11.642;2022-09-17T10:20:49;8.25;;;1.80;;
26977;SDS011;56314;48.088;11.642;2022-09-17T10:23:24;4.32;;;1.50;;
26977;SDS011;56314;48.088;11.642;2022-09-17T10:25:51;5.93;;;1.50;;
26977;SDS011;56314;48.088;11.642;2022-09-17T10:31:10;4.35;;;1.70;;
26977;SDS011;56314;48.088;11.642;2022-09-17T10:34:18;9.48;;;2.00;;
26977;SDS011;56314;48.088;11.642;2022-09-17T10:36:34;6.68;;;2.30;;
26977;SDS011;56314;48.088;11.642;2022-09-17T10:39:16;8.15;;;2.05;;
26977;SDS011;56314;48.088;11.642;2022-09-17T10:44:22;6.53;;;2.08;;
26977;SDS011;56314;48.088;11.642;2022-09-17T10:46:52;6.10;;;1.90;;
26977;SDS011;56314;48.088;11.642;2022-09-17T10:51:43;2.77;;;2.13;;
26977;SDS011;56314;48.088;11.642;2022-09-17T10:56:37;6.45;;;2.35;;
26977;SDS011;56314;48.088;11.642;2022-09-17T11:07:50;4.90;;;1.60;;
26977;SDS011;56314;48.088;11.642;2022-09-17T11:10:40;7.03;;;2.17;;
26977;SDS011;56314;48.088;11.642;2022-09-17T11:32:42;2.35;;;1.63;;
26977;SDS011;56314;48.088;11.642;2022-09-17T11:35:15;7.77;;;1.70;;
26977;SDS011;56314;48.088;11.642;2022-09-17T11:40:34;5.05;;;1.55;;
26977;SDS011;56314;48.088;11.642;2022-09-17T11:43:03;3.38;;;1.23;;
26977;SDS011;56314;48.088;11.642;2022-09-17T11:45:40;2.45;;;1.70;;
26977;SDS011;56314;48.088;11.642;2022-09-17T11:48:21;4.43;;;1.35;;
26977;SDS011;56314;48.088;11.642;2022-09-17T11:51:23;4.22;;;1.90;;
26977;SDS011;56314;48.088;11.642;2022-09-17T11:53:51;3.15;;;1.90;;
26977;SDS011;56314;48.088;11.642;2022-09-17T11:56:32;3.67;;;1.42;;
26977;SDS011;56314;48.088;11.642;2022-09-17T12:04:31;3.00;;;1.50;;
26977;SDS011;56314;48.088;11.642;2022-09-17T12:13:15;4.53;;;1.55;;
26977;SDS011;56314;48.088;11.642;2022-09-17T12:15:43;2.72;;;1.20;;
26977;SDS011;56314;48.088;11.642;2022-09-17T12:23:17;4.65;;;1.10;;
26977;SDS011;56314;48.088;11.642;2022-09-17T12:25:57;2.83;;;1.20;;
26977;SDS011;56314;48.088;11.642;2022-09-17T12:28:34;2.08;;;1.30;;
26977;SDS011;56314;48.088;11.642;2022-09-17T12:31:13;5.82;;;1.15;;
26977;SDS011;56314;48.088;11.642;2022-09-17T12:34:00;4.15;;;1.20;;
26977;SDS011;56314;48.088;11.642;2022-09-17T12:36:40;6.30;;;2.10;;
26977;SDS011;56314;48.088;11.642;2022-09-17T12:45:05;2.42;;;1.15;;
26977;SDS011;56314;48.088;11.642;2022-09-17T13:01:01;2.97;;;1.70;;
26977;SDS011;56314;48.088;11.642;2022-09-17T13:03:31;5.03;;;1.95;;
26977;SDS011;56314;48.088;11.642;2022-09-17T13:19:54;2.58;;;1.90;;
26977;SDS011;56314;48.088;11.642;2022-09-17T13:22:28;4.60;;;1.20;;
26977;SDS011;56314;48.088;11.642;2022-09-17T13:25:01;3.83;;;1.63;;
26977;SDS011;56314;48.088;11.642;2022-09-17T13:27:31;3.70;;;2.08;;
26977;SDS011;56314;48.088;11.642;2022-09-17T13:29:59;2.95;;;1.50;;
26977;SDS011;56314;48.088;11.642;2022-09-17T13:38:03;4.63;;;1.70;;
26977;SDS011;56314;48.088;11.642;2022-09-17T13:40:29;3.90;;;1.70;;
26977;SDS011;56314;48.088;11.642;2022-09-17T13:42:57;5.05;;;1.65;;
26977;SDS011;56314;48.088;11.642;2022-09-17T13:46:04;5.53;;;2.08;;
26977;SDS011;56314;48.088;11.642;2022-09-17T13:48:28;6.32;;;1.60;;
26977;SDS011;56314;48.088;11.642;2022-09-17T13:50:55;3.78;;;2.13;;
26977;SDS011;56314;48.088;11.642;2022-09-17T13:53:22;6.93;;;2.13;;
26977;SDS011;56314;48.088;11.642;2022-09-17T14:05:52;2.23;;;1.20;;
26977;SDS011;56314;48.088;11.642;2022-09-17T14:08:28;4.30;;;1.20;;
26977;SDS011;56314;48.088;11.642;2022-09-17T14:10:56;3.58;;;1.23;;
26977;SDS011;56314;48.088;11.642;2022-09-17T14:13:27;2.50;;;1.52;;
26977;SDS011;56314;48.088;11.642;2022-09-17T14:27:13;8.02;;;2.40;;
26977;SDS011;56314;48.088;11.642;2022-09-17T14:32:15;2.45;;;1.48;;
26977;SDS011;56314;48.088;11.642;2022-09-17T14:34:45;3.53;;;1.33;;
26977;SDS011;56314;48.088;11.642;2022-09-17T14:37:11;5.40;;;1.55;;
26977;SDS011;56314;48.088;11.642;2022-09-17T14:39:40;4.78;;;1.40;;
26977;SDS011;56314;48.088;11.642;2022-09-17T14:42:11;3.72;;;1.40;;
26977;SDS011;56314;48.088;11.642;2022-09-17T14:44:46;2.90;;;1.65;;
26977;SDS011;56314;48.088;11.642;2022-09-17T14:47:20;2.85;;;1.27;;
26977;SDS011;56314;48.088;11.642;2022-09-17T14:49:46;4.97;;;1.88;;
26977;SDS011;56314;48.088;11.642;2022-09-17T14:52:22;3.67;;;1.50;;
26977;SDS011;56314;48.088;11.642;2022-09-17T14:57:39;5.03;;;2.05;;
26977;SDS011;56314;48.088;11.642;2022-09-17T15:00:05;8.18;;;2.13;;
26977;SDS011;56314;48.088;11.642;2022-09-17T15:02:42;6.65;;;2.20;;
26977;SDS011;56314;48.088;11.642;2022-09-17T15:07:45;6.13;;;1.88;;
26977;SDS011;56314;48.088;11.642;2022-09-17T15:10:13;6.68;;;2.67;;
26977;SDS011;56314;48.088;11.642;2022-09-17T15:12:41;4.40;;;2.45;;
26977;SDS011;56314;48.088;11.642;2022-09-17T15:15:14;2.17;;;1.10;;
26977;SDS011;56314;48.088;11.642;2022-09-17T15:17:45;4.32;;;1.92;;
26977;SDS011;56314;48.088;11.642;2022-09-17T15:20:14;1.50;;;0.95;;
26977;SDS011;56314;48.088;11.642;2022-09-17T15:22:43;4.20;;;1.48;;
26977;SDS011;56314;48.088;11.642;2022-09-17T15:25:16;3.38;;;1.00;;
26977;SDS011;56314;48.088;11.642;2022-09-17T15:27:47;3.42;;;1.20;;
26977;SDS011;56314;48.088;11.642;2022-09-17T15:30:20;2.55;;;1.25;;
26977;SDS011;56314;48.088;11.642;2022-09-17T15:40:22;2.88;;;0.80;;
26977;SDS011;56314;48.088;11.642;2022-09-17T15:42:50;2.25;;;0.73;;
26977;SDS011;56314;48.088;11.642;2022-09-17T15:45:27;1.52;;;0.90;;
26977;SDS011;56314;48.088;11.642;2022-09-17T15:47:59;2.33;;;0.90;;
26977;SDS011;56314;48.088;11.642;2022-09-17T15:50:29;2.08;;;0.80;;
26977;SDS011;56314;48.088;11.642;2022-09-17T15:52:57;2.00;;;1.02;;
26977;SDS011;56314;48.088;11.642;2022-09-17T15:55:37;0.90;;;0.80;;
26977;SDS011;56314;48.088;11.642;2022-09-17T15:58:18;1.63;;;1.17;;
26977;SDS011;56314;48.088;11.642;2022-09-17T16:01:50;2.47;;;1.48;;
26977;SDS011;56314;48.088;11.642;2022-09-17T16:04:01;1.45;;;1.13;;
26977;SDS011;56314;48.088;11.642;2022-09-17T16:08:58;1.87;;;1.60;;
26977;SDS011;56314;48.088;11.642;2022-09-17T16:11:25;2.10;;;1.20;;
26977;SDS011;56314;48.088;11.642;2022-09-17T16:13:52;2.97;;;1.10;;
26977;SDS011;56314;48.088;11.642;2022-09-17T16:16:24;2.30;;;1.45;;
26977;SDS011;56314;48.088;11.642;2022-09-17T16:18:54;3.22;;;1.10;;
26977;SDS011;56314;48.088;11.642;2022-09-17T16:21:20;3.20;;;1.10;;
26977;SDS011;56314;48.088;11.642;2022-09-17T16:23:45;3.17;;;1.63;;
26977;SDS011;56314;48.088;11.642;2022-09-17T16:26:12;1.88;;;0.88;;
26977;SDS011;56314;48.088;11.642;2022-09-17T16:28:43;1.98;;;1.00;;
26977;SDS011;56314;48.088;11.642;2022-09-17T16:31:12;1.98;;;0.80;;
26977;SDS011;56314;48.088;11.642;2022-09-17T16:33:38;3.03;;;1.58;;
26977;SDS011;56314;48.088;11.642;2022-09-17T16:36:03;3.58;;;1.15;;
26977;SDS011;56314;48.088;11.642;2022-09-17T16:38:29;4.70;;;1.02;;
26977;SDS011;56314;48.088;11.642;2022-09-17T16:40:54;3.67;;;0.95;;
26977;SDS011;56314;48.088;11.642;2022-09-17T16:43:20;1.55;;;0.88;;
26977;SDS011;56314;48.088;11.642;2022-09-17T16:46:04;1.85;;;0.60;;
26977;SDS011;56314;48.088;11.642;2022-09-17T16:48:31;2.20;;;0.60;;
26977;SDS011;56314;48.088;11.642;2022-09-17T16:50:57;1.02;;;0.80;;
26977;SDS011;56314;48.088;11.642;2022-09-17T16:53:23;0.50;;;0.50;;
26977;SDS011;56314;48.088;11.642;2022-09-17T16:55:49;4.00;;;1.00;;
26977;SDS011;56314;48.088;11.642;2022-09-17T16:58:14;1.00;;;0.80;;
26977;SDS011;56314;48.088;11.642;2022-09-17T17:00:43;1.63;;;0.73;;
26977;SDS011;56314;48.088;11.642;2022-09-17T17:03:10;1.75;;;0.93;;
26977;SDS011;56314;48.088;11.642;2022-09-17T17:05:37;1.55;;;0.93;;
26977;SDS011;56314;48.088;11.642;2022-09-17T17:08:02;1.38;;;0.80;;
26977;SDS011;56314;48.088;11.642;2022-09-17T17:10:27;1.70;;;1.00;;
26977;SDS011;56314;48.088;11.642;2022-09-17T17:12:53;1.75;;;1.00;;
26977;SDS011;56314;48.088;11.642;2022-09-17T17:15:18;1.98;;;0.90;;
26977;SDS011;56314;48.088;11.642;2022-09-17T17:17:45;2.85;;;0.85;;
26977;SDS011;56314;48.088;11.642;2022-09-17T17:20:10;2.63;;;0.82;;
26977;SDS011;56314;48.088;11.642;2022-09-17T17:22:38;2.22;;;1.08;;
26977;SDS011;56314;48.088;11.642;2022-09-17T17:25:04;1.88;;;1.10;;
26977;SDS011;56314;48.088;11.642;2022-09-17T17:27:31;5.43;;;1.15;;
26977;SDS011;56314;48.088;11.642;2022-09-17T17:29:57;2.03;;;0.90;;
26977;SDS011;56314;48.088;11.642;2022-09-17T17:32:23;2.42;;;1.17;;
26977;SDS011;56314;48.088;11.642;2022-09-17T17:34:48;2.65;;;1.30;;
26977;SDS011;56314;48.088;11.642;2022-09-17T17:37:14;2.28;;;1.00;;
26977;SDS011;56314;48.088;11.642;2022-09-17T17:39:40;2.47;;;1.17;;
26977;SDS011;56314;48.088;11.642;2022-09-17T17:42:06;2.35;;;0.98;;
26977;SDS011;56314;48.088;11.642;2022-09-17T17:44:31;1.38;;;0.80;;
26977;SDS011;56314;48.088;11.642;2022-09-17T17:46:56;2.40;;;0.70;;
26977;SDS011;56314;48.088;11.642;2022-09-17T17:49:22;1.15;;;1.00;;
26977;SDS011;56314;48.088;11.642;2022-09-17T17:51:47;0.85;;;0.82;;
26977;SDS011;56314;48.088;11.642;2022-09-17T17:54:13;1.30;;;0.77;;
26977;SDS011;56314;48.088;11.642;2022-09-17T17:56:38;1.25;;;0.80;;
26977;SDS011;56314;48.088;11.642;2022-09-17T17:59:04;0.73;;;0.70;;
26977;SDS011;56314;48.088;11.642;2022-09-17T18:01:29;2.38;;;0.95;;
26977;SDS011;56314;48.088;11.642;2022-09-17T18:03:58;1.73;;;1.00;;
26977;SDS011;56314;48.088;11.642;2022-09-17T18:06:25;1.10;;;0.70;;
26977;SDS011;56314;48.088;11.642;2022-09-17T18:08:52;1.17;;;0.75;;
26977;SDS011;56314;48.088;11.642;2022-09-17T18:11:17;0.60;;;0.60;;
26977;SDS011;56314;48.088;11.642;2022-09-17T18:13:44;2.05;;;0.52;;
26977;SDS011;56314;48.088;11.642;2022-09-17T18:16:10;1.92;;;0.82;;
26977;SDS011;56314;48.088;11.642;2022-09-17T18:18:38;2.75;;;0.93;;
26977;SDS011;56314;48.088;11.642;2022-09-17T18:21:06;1.88;;;0.75;;
26977;SDS011;56314;48.088;11.642;2022-09-17T18:23:33;1.50;;;0.70;;
26977;SDS011;56314;48.088;11.642;2022-09-17T18:26:00;2.13;;;0.80;;
26977;SDS011;56314;48.088;11.642;2022-09-17T18:28:26;0.95;;;0.82;;
26977;SDS011;56314;48.088;11.642;2022-09-17T18:30:53;0.93;;;0.70;;